createdAt,value
2022-08-17T00:00:49.489Z,99626.33
2022-08-17T00:01:52.030Z,99633.53
2022-08-17T00:03:07.666Z,99627.63
2022-08-17T00:04:11.905Z,99629.19
2022-08-17T00:05:15.403Z,99633.56
2022-08-17T00:06:25.696Z,99633.56
2022-08-17T00:07:28.147Z,99637.36
2022-08-17T00:08:37.295Z,99630.48
2022-08-17T00:09:39.487Z,99627.80
2022-08-17T00:10:44.280Z,99634.59
2022-08-17T00:12:34.601Z,99641.36
2022-08-17T00:12:52.806Z,99628.41
2022-08-17T00:13:58.623Z,99629.55
2022-08-17T00:15:01.546Z,99636.17
2022-08-17T00:17:16.749Z,99627.11
2022-08-17T00:19:01.719Z,99637.98
2022-08-17T00:19:25.433Z,99636.17
2022-08-17T00:20:32.029Z,99636.17
2022-08-17T00:22:32.437Z,99633.32
2022-08-17T00:22:40.808Z,99635.57
2022-08-17T00:23:47.777Z,99638.97
2022-08-17T00:24:48.128Z,99637.97
2022-08-17T00:25:50.754Z,99636.58
2022-08-17T00:26:53.314Z,99635.30
2022-08-17T00:27:55.583Z,99628.83
2022-08-17T00:28:59.763Z,99630.50
2022-08-17T00:30:03.127Z,99630.64
2022-08-17T00:31:07.557Z,99627.13
2022-08-17T00:33:13.956Z,99628.28
2022-08-17T00:33:17.732Z,99628.14
2022-08-17T00:34:19.997Z,99627.70
2022-08-17T00:35:24.011Z,99626.58
2022-08-17T00:36:27.590Z,99632.48
2022-08-17T00:37:29.771Z,99629.95
2022-08-17T00:38:32.575Z,99624.33
2022-08-17T00:39:34.960Z,99624.05
2022-08-17T00:40:44.867Z,99635.16
2022-08-17T00:41:47.960Z,99623.20
2022-08-17T00:42:51.023Z,99615.85
2022-08-17T00:44:00.174Z,99615.97
2022-08-17T00:45:05.368Z,99618.07
2022-08-17T00:46:16.082Z,99615.80
2022-08-17T00:47:18.814Z,99620.31
2022-08-17T00:48:28.933Z,99621.03
2022-08-17T00:49:26.120Z,99616.69
2022-08-17T00:50:29.743Z,99617.11
2022-08-17T00:51:43.861Z,99611.64
2022-08-17T00:52:55.605Z,99617.67
2022-08-17T00:54:01.467Z,99617.38
2022-08-17T00:55:05.662Z,99613.26
2022-08-17T00:56:21.082Z,99611.88
2022-08-17T00:57:42.244Z,99613.41
2022-08-17T00:58:44.719Z,99613.26
2022-08-17T01:00:01.892Z,99609.89
2022-08-17T01:00:58.733Z,99616.08
2022-08-17T01:02:02.139Z,99614.41
2022-08-17T01:03:16.974Z,99623.14
2022-08-17T01:04:21.721Z,99615.80
2022-08-17T01:05:27.055Z,99623.97
2022-08-17T01:06:32.834Z,99624.98
2022-08-17T01:07:35.367Z,99623.83
2022-08-17T01:08:39.943Z,99620.61
2022-08-17T01:09:43.497Z,99625.96
2022-08-17T01:11:59.519Z,99616.34
2022-08-17T01:13:02.702Z,99616.38
2022-08-17T01:14:05.330Z,99619.48
2022-08-17T01:15:08.408Z,99602.52
2022-08-17T01:16:23.572Z,99616.92
2022-08-17T01:17:25.978Z,99615.80
2022-08-17T01:18:28.606Z,99614.41
2022-08-17T01:19:34.444Z,99618.50
2022-08-17T01:20:48.314Z,99619.08
2022-08-17T01:22:03.649Z,99621.20
2022-08-17T01:23:06.044Z,99611.91
2022-08-17T01:24:08.315Z,99616.14
2022-08-17T01:25:11.873Z,99612.20
2022-08-17T01:26:15.089Z,99614.16
2022-08-17T01:27:18.748Z,99614.01
2022-08-17T01:28:52.663Z,99619.48
2022-08-17T01:29:31.645Z,99610.20
2022-08-17T01:30:57.342Z,99604.28
2022-08-17T01:31:46.289Z,99611.59
2022-08-17T01:32:48.933Z,99611.91
2022-08-17T01:33:51.579Z,99609.08
2022-08-17T01:34:54.797Z,99604.33
2022-08-17T01:35:57.802Z,99599.90
2022-08-17T01:37:00.532Z,99594.72
2022-08-17T01:38:02.786Z,99598.69
2022-08-17T01:39:08.169Z,99593.45
2022-08-17T01:40:23.388Z,99597.25
2022-08-17T01:41:26.545Z,99596.30
2022-08-17T01:42:41.578Z,99594.20
2022-08-17T01:43:53.079Z,99600.95
2022-08-17T01:44:58.958Z,99598.70
2022-08-17T01:46:04.043Z,99596.89
2022-08-17T01:47:06.663Z,99597.02
2022-08-17T01:48:11.416Z,99601.50
2022-08-17T01:49:13.999Z,99604.35
2022-08-17T01:50:20.083Z,99592.78
2022-08-17T01:51:24.620Z,99595.86
2022-08-17T01:52:26.995Z,99605.34
2022-08-17T01:53:35.976Z,99606.32
2022-08-17T01:54:41.220Z,99603.92
2022-08-17T01:56:02.498Z,99598.86
2022-08-17T01:57:04.893Z,99593.36
2022-08-17T01:58:08.192Z,99588.87
2022-08-17T01:59:10.969Z,99588.56
2022-08-17T02:00:14.475Z,99579.86
2022-08-17T02:01:19.657Z,99579.86
2022-08-17T02:02:30.538Z,99591.25
2022-08-17T02:03:26.876Z,99587.59
2022-08-17T02:04:29.381Z,99589.85
2022-08-17T02:05:32.134Z,99583.94
2022-08-17T02:06:53.573Z,99584.05
2022-08-17T02:07:59.489Z,99589.13
2022-08-17T02:09:03.245Z,99593.62
2022-08-17T02:09:52.802Z,99584.30
2022-08-17T02:10:55.392Z,99582.31
2022-08-17T02:12:00.008Z,99585.85
2022-08-17T02:13:04.494Z,99592.73
2022-08-17T02:14:09.568Z,99586.40
2022-08-17T02:15:12.119Z,99592.45
2022-08-17T02:16:15.373Z,99594.43
2022-08-17T02:17:17.739Z,99590.78
2022-08-17T02:18:20.031Z,99594.86
2022-08-17T02:19:22.221Z,99591.06
2022-08-17T02:20:41.275Z,99590.34
2022-08-17T02:21:30.573Z,99594.17
2022-08-17T02:22:33.811Z,99593.73
2022-08-17T02:23:39.600Z,99578.82
2022-08-17T02:24:58.615Z,99593.02
2022-08-17T02:25:47.802Z,99587.98
2022-08-17T02:26:51.881Z,99596.30
2022-08-17T02:27:54.313Z,99593.34
2022-08-17T02:28:56.505Z,99592.05
2022-08-17T02:30:00.709Z,99587.23
2022-08-17T02:32:27.488Z,99578.91
2022-08-17T02:33:22.707Z,99585.12
2022-08-17T02:34:25.303Z,99586.28
2022-08-17T02:35:27.822Z,99588.81
2022-08-17T02:36:30.681Z,99591.06
2022-08-17T02:37:33.110Z,99587.34
2022-08-17T02:38:37.351Z,99583.43
2022-08-17T02:39:39.911Z,99592.59
2022-08-17T02:40:42.444Z,99588.79
2022-08-17T02:41:46.649Z,99580.36
2022-08-17T02:42:49.731Z,99591.06
2022-08-17T02:43:52.255Z,99580.06
2022-08-17T02:44:54.580Z,99586.94
2022-08-17T02:45:57.459Z,99585.82
2022-08-17T02:47:00.479Z,99584.41
2022-08-17T02:48:03.556Z,99583.14
2022-08-17T02:49:06.212Z,99578.33
2022-08-17T02:50:11.385Z,99576.34
2022-08-17T02:51:14.109Z,99575.51
2022-08-17T02:52:16.459Z,99573.81
2022-08-17T02:53:20.883Z,99570.55
2022-08-17T02:54:41.387Z,99571.27
2022-08-17T02:55:30.575Z,99572.98
2022-08-17T02:56:33.201Z,99577.36
2022-08-17T02:57:35.414Z,99577.79
2022-08-17T02:58:37.861Z,99571.02
2022-08-17T02:59:44.270Z,99579.95
2022-08-17T03:00:46.126Z,99574.16
2022-08-17T03:01:48.629Z,99578.25
2022-08-17T03:02:51.603Z,99576.70
2022-08-17T03:03:54.279Z,99585.12
2022-08-17T03:04:56.787Z,99577.67
2022-08-17T03:05:59.355Z,99577.81
2022-08-17T03:07:03.674Z,99580.50
2022-08-17T03:08:07.441Z,99578.94
2022-08-17T03:09:11.586Z,99574.73
2022-08-17T03:10:15.612Z,99576.41
2022-08-17T03:11:18.037Z,99572.20
2022-08-17T03:12:20.592Z,99575.83
2022-08-17T03:13:23.391Z,99575.83
2022-08-17T03:14:26.236Z,99573.30
2022-08-17T03:15:31.780Z,99567.66
2022-08-17T03:16:34.427Z,99563.71
2022-08-17T03:17:37.187Z,99569.06
2022-08-17T03:18:39.991Z,99573.41
2022-08-17T03:19:42.912Z,99566.20
2022-08-17T03:20:46.156Z,99570.73
2022-08-17T03:21:55.169Z,99565.09
2022-08-17T03:23:01.863Z,99562.81
2022-08-17T03:24:00.976Z,99571.28
2022-08-17T03:25:10.680Z,99565.92
2022-08-17T03:26:12.300Z,99566.50
2022-08-17T03:27:16.304Z,99564.11
2022-08-17T03:28:18.873Z,99564.80
2022-08-17T03:29:21.157Z,99566.20
2022-08-17T03:30:25.933Z,99565.20
2022-08-17T03:31:28.285Z,99564.22
2022-08-17T03:32:34.121Z,99573.77
2022-08-17T03:33:36.499Z,99567.88
2022-08-17T03:34:38.768Z,99568.59
2022-08-17T03:35:41.219Z,99566.45
2022-08-17T03:36:44.210Z,99567.00
2022-08-17T03:37:47.639Z,99564.28
2022-08-17T03:38:51.999Z,99574.02
2022-08-17T03:39:54.607Z,99569.78
2022-08-17T03:40:59.867Z,99548.00
2022-08-17T03:42:05.322Z,99563.44
2022-08-17T03:43:09.818Z,99569.78
2022-08-17T03:44:12.159Z,99571.77
2022-08-17T03:45:17.309Z,99571.09
2022-08-17T03:46:28.528Z,99566.89
2022-08-17T03:47:24.158Z,99572.39
2022-08-17T03:48:27.021Z,99565.92
2022-08-17T03:49:29.221Z,99571.67
2022-08-17T03:50:32.290Z,99571.27
2022-08-17T03:51:34.585Z,99565.92
2022-08-17T03:52:36.997Z,99575.18
2022-08-17T03:53:55.018Z,99576.59
2022-08-17T03:54:57.388Z,99572.56
2022-08-17T03:56:01.418Z,99570.32
2022-08-17T03:58:16.549Z,99579.72
2022-08-17T03:59:22.533Z,99574.02
2022-08-17T04:00:25.576Z,99578.50
2022-08-17T04:01:27.951Z,99576.30
2022-08-17T04:02:32.039Z,99575.72
2022-08-17T04:03:34.538Z,99576.45
2022-08-17T04:04:37.695Z,99571.92
2022-08-17T04:05:40.438Z,99575.43
2022-08-17T04:06:43.137Z,99576.55
2022-08-17T04:07:45.444Z,99572.85
2022-08-17T04:08:47.761Z,99572.02
2022-08-17T04:09:50.066Z,99579.08
2022-08-17T04:10:52.477Z,99572.31
2022-08-17T04:11:54.768Z,99580.79
2022-08-17T04:12:59.206Z,99582.20
2022-08-17T04:14:02.214Z,99574.55
2022-08-17T04:15:06.809Z,99581.70
2022-08-17T04:16:09.544Z,99580.41
2022-08-17T04:17:12.026Z,99587.44
2022-08-17T04:18:18.370Z,99585.69
2022-08-17T04:19:20.725Z,99582.41
2022-08-17T04:20:25.219Z,99581.28
2022-08-17T04:21:27.720Z,99574.60
2022-08-17T04:22:34.229Z,99583.36
2022-08-17T04:23:34.784Z,99569.09
2022-08-17T04:24:37.270Z,99578.99
2022-08-17T04:25:42.913Z,99578.84
2022-08-17T04:26:53.848Z,99576.09
2022-08-17T04:27:49.986Z,99571.28
2022-08-17T04:28:52.284Z,99569.05
2022-08-17T04:29:55.944Z,99574.95
2022-08-17T04:30:59.196Z,99571.97
2022-08-17T04:32:02.388Z,99573.09
2022-08-17T04:33:11.403Z,99573.55
2022-08-17T04:34:13.988Z,99573.40
2022-08-17T04:35:22.652Z,99572.56
2022-08-17T04:36:26.775Z,99563.46
2022-08-17T04:37:29.069Z,99561.38
2022-08-17T04:38:37.194Z,99568.36
2022-08-17T04:39:39.780Z,99563.22
2022-08-17T04:40:43.055Z,99566.05
2022-08-17T04:41:45.434Z,99557.77
2022-08-17T04:43:03.253Z,99564.27
2022-08-17T04:44:05.504Z,99564.61
2022-08-17T04:45:08.619Z,99567.66
2022-08-17T04:46:14.439Z,99565.81
2022-08-17T04:47:16.847Z,99563.55
2022-08-17T04:48:19.328Z,99562.24
2022-08-17T04:49:21.650Z,99562.03
2022-08-17T04:50:24.696Z,99560.13
2022-08-17T04:51:39.851Z,99560.13
2022-08-17T04:52:47.335Z,99560.72
2022-08-17T04:53:54.381Z,99560.13
2022-08-17T04:54:57.210Z,99567.48
2022-08-17T04:55:59.686Z,99567.27
2022-08-17T04:57:02.289Z,99561.79
2022-08-17T04:58:04.733Z,99566.94
2022-08-17T04:59:10.592Z,99567.05
2022-08-17T05:00:14.182Z,99560.05
2022-08-17T05:01:24.110Z,99560.08
2022-08-17T05:02:23.603Z,99562.79
2022-08-17T05:03:26.277Z,99560.27
2022-08-17T05:04:34.204Z,99561.80
2022-08-17T05:05:35.895Z,99560.97
2022-08-17T05:06:38.312Z,99562.30
2022-08-17T05:07:40.738Z,99557.41
2022-08-17T05:08:43.131Z,99551.68
2022-08-17T05:09:45.552Z,99562.28
2022-08-17T05:10:49.094Z,99556.03
2022-08-17T05:11:51.497Z,99556.03
2022-08-17T05:12:58.824Z,99564.44
2022-08-17T05:14:01.285Z,99559.05
2022-08-17T05:15:04.910Z,99560.75
2022-08-17T05:16:07.644Z,99556.73
2022-08-17T05:17:11.181Z,99556.03
2022-08-17T05:18:14.766Z,99557.06
2022-08-17T05:19:17.060Z,99561.58
2022-08-17T05:20:21.943Z,99561.63
2022-08-17T05:21:26.410Z,99563.75
2022-08-17T05:22:28.925Z,99564.77
2022-08-17T05:23:41.592Z,99559.27
2022-08-17T05:24:42.728Z,99557.56
2022-08-17T05:25:43.044Z,99557.23
2022-08-17T05:26:47.386Z,99557.08
2022-08-17T05:27:52.862Z,99558.44
2022-08-17T05:28:58.539Z,99563.12
2022-08-17T05:30:02.376Z,99560.27
2022-08-17T05:31:05.027Z,99558.64
2022-08-17T05:32:38.089Z,99562.16
2022-08-17T05:33:17.067Z,99566.55
2022-08-17T05:34:19.529Z,99565.34
2022-08-17T05:35:23.541Z,99569.91
2022-08-17T05:36:42.576Z,99568.73
2022-08-17T05:37:30.605Z,99571.44
2022-08-17T05:38:33.383Z,99569.06
2022-08-17T05:39:35.748Z,99570.58
2022-08-17T05:40:38.803Z,99557.53
2022-08-17T05:41:41.237Z,99563.11
2022-08-17T05:42:43.729Z,99562.05
2022-08-17T05:43:46.213Z,99558.75
2022-08-17T05:44:48.278Z,99561.53
2022-08-17T05:45:55.703Z,99555.73
2022-08-17T05:47:00.802Z,99552.45
2022-08-17T05:48:03.328Z,99555.60
2022-08-17T05:49:07.345Z,99563.05
2022-08-17T05:50:12.891Z,99555.57
2022-08-17T05:51:40.162Z,99556.34
2022-08-17T05:52:46.088Z,99547.98
2022-08-17T05:54:10.965Z,99554.31
2022-08-17T05:55:19.911Z,99545.12
2022-08-17T05:56:37.835Z,99551.66
2022-08-17T05:57:54.215Z,99543.87
2022-08-17T05:59:09.889Z,99546.95
2022-08-17T06:00:30.728Z,99546.02
2022-08-17T06:03:19.580Z,99552.91
2022-08-17T06:04:51.483Z,99554.95
2022-08-17T06:05:59.942Z,99549.36
2022-08-17T06:08:41.172Z,99550.85
2022-08-17T06:09:47.071Z,99556.45
2022-08-17T06:10:58.970Z,99548.52
2022-08-17T06:12:14.478Z,99548.70
2022-08-17T06:13:55.268Z,99552.11
2022-08-17T06:15:15.594Z,99554.00
2022-08-17T06:16:32.900Z,99564.66
2022-08-17T06:17:28.036Z,99554.00
2022-08-17T06:19:55.965Z,99545.50
2022-08-17T06:21:02.257Z,99558.20
2022-08-17T06:22:07.057Z,99558.42
2022-08-17T06:23:13.010Z,99556.00
2022-08-17T06:24:31.253Z,99552.31
2022-08-17T06:25:40.415Z,99550.66
2022-08-17T06:26:43.907Z,99554.13
2022-08-17T06:27:53.581Z,99548.89
2022-08-17T06:29:00.432Z,99554.69
2022-08-17T06:30:24.734Z,99551.67
2022-08-17T06:31:30.602Z,99557.34
2022-08-17T06:32:35.256Z,99551.05
2022-08-17T06:33:39.636Z,99554.59
2022-08-17T06:34:44.371Z,99549.72
2022-08-17T06:35:55.998Z,99552.33
2022-08-17T06:37:32.959Z,99546.11
2022-08-17T06:38:45.086Z,99548.81
2022-08-17T06:39:56.891Z,99549.04
2022-08-17T06:41:23.087Z,99551.59
2022-08-17T06:43:00.874Z,99548.53
2022-08-17T06:44:04.366Z,99548.41
2022-08-17T06:45:10.309Z,99551.76
2022-08-17T06:46:35.733Z,99552.16
2022-08-17T06:47:50.873Z,99550.07
2022-08-17T06:49:03.300Z,99549.06
2022-08-17T06:50:15.171Z,99552.41
2022-08-17T06:51:31.986Z,99543.95
2022-08-17T06:52:46.495Z,99552.94
2022-08-17T06:54:00.731Z,99540.03
2022-08-17T06:55:09.777Z,99542.34
2022-08-17T06:57:47.632Z,99542.78
2022-08-17T06:58:52.008Z,99546.14
2022-08-17T07:00:00.791Z,99547.66
2022-08-17T07:01:10.678Z,99545.96
2022-08-17T07:02:16.740Z,99554.14
2022-08-17T07:03:38.073Z,99554.12
2022-08-17T07:04:40.683Z,99547.02
2022-08-17T07:07:09.520Z,99549.94
2022-08-17T07:08:36.156Z,99550.98
2022-08-17T07:09:38.830Z,99557.16
2022-08-17T07:12:04.303Z,99556.41
2022-08-17T07:13:39.149Z,99557.91
2022-08-17T07:14:54.219Z,99551.41
2022-08-17T07:16:09.118Z,99554.77
2022-08-17T07:17:14.916Z,99557.06
2022-08-17T07:18:17.325Z,99550.36
2022-08-17T07:19:23.087Z,99556.20
2022-08-17T07:20:27.433Z,99552.45
2022-08-17T07:21:36.581Z,99554.09
2022-08-17T07:22:57.493Z,99554.09
2022-08-17T07:23:57.333Z,99548.64
2022-08-17T07:25:02.600Z,99556.22
2022-08-17T07:26:10.514Z,99556.39
2022-08-17T07:27:22.695Z,99559.11
2022-08-17T07:28:27.387Z,99554.03
2022-08-17T07:29:32.998Z,99556.55
2022-08-17T07:30:45.695Z,99557.53
2022-08-17T07:31:44.769Z,99551.01
2022-08-17T07:33:02.219Z,99536.36
2022-08-17T07:34:13.586Z,99561.47
2022-08-17T07:35:37.900Z,99557.23
2022-08-17T07:36:41.911Z,99559.64
2022-08-17T07:38:57.541Z,99554.65
2022-08-17T07:41:13.347Z,99555.42
2022-08-17T07:42:15.661Z,99560.80
2022-08-17T07:43:24.547Z,99554.54
2022-08-17T07:44:26.991Z,99552.63
2022-08-17T07:45:30.854Z,99555.30
2022-08-17T07:46:34.673Z,99553.73
2022-08-17T07:47:37.316Z,99536.36
2022-08-17T07:48:42.108Z,99555.34
2022-08-17T07:49:44.872Z,99552.95
2022-08-17T07:50:50.574Z,99548.61
2022-08-17T07:51:57.072Z,99551.11
2022-08-17T07:53:19.583Z,99555.02
2022-08-17T07:54:24.954Z,99551.25
2022-08-17T07:56:49.510Z,99556.31
2022-08-17T07:57:57.734Z,99561.00
2022-08-17T07:59:20.476Z,99562.77
2022-08-17T08:00:29.141Z,99557.20
2022-08-17T08:01:27.968Z,99565.77
2022-08-17T08:02:35.794Z,99554.88
2022-08-17T08:03:44.320Z,99564.52
2022-08-17T08:05:00.538Z,99560.70
2022-08-17T08:05:57.679Z,99561.52
2022-08-17T08:07:04.139Z,99568.70
2022-08-17T08:08:22.019Z,99553.66
2022-08-17T08:09:30.703Z,99559.12
2022-08-17T08:10:38.271Z,99562.03
2022-08-17T08:11:44.344Z,99556.97
2022-08-17T08:12:53.719Z,99554.89
2022-08-17T08:13:54.060Z,99560.33
2022-08-17T08:15:00.786Z,99552.81
2022-08-17T08:16:18.676Z,99556.52
2022-08-17T08:17:24.688Z,99558.25
2022-08-17T08:18:39.704Z,99555.55
2022-08-17T08:19:37.271Z,99553.39
2022-08-17T08:20:51.861Z,99553.95
2022-08-17T08:21:51.528Z,99561.39
2022-08-17T08:24:30.965Z,99555.63
2022-08-17T08:26:07.113Z,99557.83
2022-08-17T08:27:49.558Z,99553.62
2022-08-17T08:29:11.954Z,99562.84
2022-08-17T08:30:18.951Z,99561.99
2022-08-17T08:31:50.982Z,99550.59
2022-08-17T08:33:13.918Z,99554.42
2022-08-17T08:34:44.625Z,99554.98
2022-08-17T08:35:45.525Z,99551.58
2022-08-17T08:37:16.343Z,99555.16
2022-08-17T08:38:32.111Z,99553.13
2022-08-17T08:41:19.403Z,99552.76
2022-08-17T08:42:34.423Z,99561.61
2022-08-17T08:43:53.339Z,99566.66
2022-08-17T08:45:04.463Z,99561.64
2022-08-17T08:46:25.567Z,99562.08
2022-08-17T08:47:37.539Z,99566.45
2022-08-17T08:48:58.316Z,99559.97
2022-08-17T08:50:30.133Z,99561.58
2022-08-17T08:51:41.206Z,99560.34
2022-08-17T08:52:53.364Z,99558.94
2022-08-17T08:54:02.331Z,99563.27
2022-08-17T08:55:23.432Z,99563.48
2022-08-17T08:56:39.738Z,99561.86
2022-08-17T08:57:45.670Z,99561.59
2022-08-17T08:58:57.607Z,99559.48
2022-08-17T09:00:18.448Z,99555.92
2022-08-17T09:03:02.153Z,99553.50
2022-08-17T09:04:25.259Z,99559.56
2022-08-17T09:05:24.872Z,99553.92
2022-08-17T09:06:49.108Z,99561.88
2022-08-17T09:08:13.249Z,99554.52
2022-08-17T09:09:37.183Z,99556.63
2022-08-17T09:10:52.232Z,99558.09
2022-08-17T09:12:03.564Z,99550.36
2022-08-17T09:13:20.840Z,99557.26
2022-08-17T09:14:28.463Z,99556.19
2022-08-17T09:15:34.642Z,99560.81
2022-08-17T09:16:49.320Z,99550.55
2022-08-17T09:19:21.295Z,99554.03
2022-08-17T09:21:48.373Z,99550.13
2022-08-17T09:22:54.919Z,99552.42
2022-08-17T09:24:03.676Z,99558.72
2022-08-17T09:25:21.519Z,99559.77
2022-08-17T09:26:42.798Z,99562.48
2022-08-17T09:29:15.219Z,99545.97
2022-08-17T09:30:19.857Z,99544.89
2022-08-17T09:31:29.953Z,99553.05
2022-08-17T09:32:42.217Z,99554.50
2022-08-17T09:33:46.768Z,99551.78
2022-08-17T09:34:52.264Z,99550.08
2022-08-17T09:36:07.442Z,99546.59
2022-08-17T09:37:31.733Z,99550.94
2022-08-17T09:38:40.449Z,99551.92
2022-08-17T09:39:46.344Z,99551.44
2022-08-17T09:42:06.363Z,99553.52
2022-08-17T09:43:12.352Z,99547.25
2022-08-17T09:44:41.278Z,99549.94
2022-08-17T09:45:49.812Z,99543.87
2022-08-17T09:47:01.785Z,99545.78
2022-08-17T09:48:18.180Z,99540.34
2022-08-17T09:49:30.110Z,99546.95
2022-08-17T09:51:03.160Z,99548.42
2022-08-17T09:51:49.351Z,99543.97
2022-08-17T09:52:55.235Z,99539.08
2022-08-17T09:54:21.017Z,99545.56
2022-08-17T09:55:05.591Z,99542.23
2022-08-17T09:56:28.950Z,99533.63
2022-08-17T09:57:53.371Z,99549.97
2022-08-17T09:59:05.199Z,99541.41
2022-08-17T10:00:26.662Z,99540.47
2022-08-17T10:01:38.775Z,99542.23
2022-08-17T10:03:00.158Z,99541.38
2022-08-17T10:04:29.314Z,99536.78
2022-08-17T10:05:50.594Z,99540.30
2022-08-17T10:07:20.397Z,99534.24
2022-08-17T10:08:43.345Z,99533.86
2022-08-17T10:11:33.566Z,99527.36
2022-08-17T10:12:53.260Z,99534.50
2022-08-17T10:14:35.960Z,99534.75
2022-08-17T10:15:18.724Z,99535.78
2022-08-17T10:16:34.046Z,99538.80
2022-08-17T10:17:42.962Z,99528.87
2022-08-17T10:19:14.440Z,99535.93
2022-08-17T10:20:27.332Z,99527.19
2022-08-17T10:21:32.936Z,99531.98
2022-08-17T10:22:55.631Z,99527.67
2022-08-17T10:25:22.764Z,99526.33
2022-08-17T10:26:26.231Z,99528.27
2022-08-17T10:27:44.268Z,99525.14
2022-08-17T10:29:11.551Z,99521.99
2022-08-17T10:30:19.122Z,99524.81
2022-08-17T10:31:34.765Z,99532.69
2022-08-17T10:32:39.113Z,99523.89
2022-08-17T10:35:36.272Z,99519.73
2022-08-17T10:36:48.121Z,99515.94
2022-08-17T10:38:10.468Z,99514.50
2022-08-17T10:39:25.457Z,99528.72
2022-08-17T10:40:47.354Z,99521.37
2022-08-17T10:41:53.409Z,99529.23
2022-08-17T10:43:11.617Z,99524.69
2022-08-17T10:44:38.575Z,99528.62
2022-08-17T10:45:39.731Z,99525.03
2022-08-17T10:47:13.311Z,99515.11
2022-08-17T10:48:34.674Z,99526.33
2022-08-17T10:49:38.494Z,99534.89
2022-08-17T10:51:02.880Z,99527.38
2022-08-17T10:52:25.017Z,99527.22
2022-08-17T10:53:40.356Z,99527.41
2022-08-17T10:54:58.801Z,99521.56
2022-08-17T10:56:15.446Z,99520.45
2022-08-17T10:57:33.261Z,99514.77
2022-08-17T10:58:54.144Z,99511.63
2022-08-17T10:59:58.142Z,99515.79
2022-08-17T11:01:00.727Z,99518.25
2022-08-17T11:02:16.337Z,99513.02
2022-08-17T11:03:22.377Z,99514.05
2022-08-17T11:04:36.944Z,99519.94
2022-08-17T11:06:08.986Z,99522.09
2022-08-17T11:07:34.457Z,99527.16
2022-08-17T11:10:30.483Z,99518.17
2022-08-17T11:11:51.356Z,99517.80
2022-08-17T11:13:14.224Z,99520.28
2022-08-17T11:14:38.297Z,99513.83
2022-08-17T11:16:21.092Z,99521.96
2022-08-17T11:17:30.315Z,99517.19
2022-08-17T11:18:41.900Z,99524.25
2022-08-17T11:20:08.439Z,99519.38
2022-08-17T11:21:38.840Z,99519.38
2022-08-17T11:23:02.747Z,99517.03
2022-08-17T11:25:40.778Z,99515.41
2022-08-17T11:26:46.778Z,99511.00
2022-08-17T11:27:53.118Z,99508.31
2022-08-17T11:28:59.114Z,99511.85
2022-08-17T11:30:13.787Z,99511.59
2022-08-17T11:31:41.590Z,99507.36
2022-08-17T11:32:54.651Z,99505.28
2022-08-17T11:34:00.287Z,99498.69
2022-08-17T11:36:35.099Z,99503.44
2022-08-17T11:37:52.699Z,99497.83
2022-08-17T11:39:22.481Z,99502.34
2022-08-17T11:40:38.481Z,99498.10
2022-08-17T11:42:03.986Z,99495.59
2022-08-17T11:43:26.561Z,99497.18
2022-08-17T11:44:53.930Z,99505.95
2022-08-17T11:45:59.798Z,99495.50
2022-08-17T11:47:11.137Z,99451.11
2022-08-17T11:48:27.635Z,99496.91
2022-08-17T11:49:44.836Z,99492.27
2022-08-17T11:51:15.142Z,99488.67
2022-08-17T11:52:42.191Z,99486.91
2022-08-17T11:53:50.266Z,99467.38
2022-08-17T11:54:52.829Z,99471.69
2022-08-17T11:55:58.945Z,99478.59
2022-08-17T11:58:45.951Z,99480.50
2022-08-17T11:59:54.156Z,99482.33
2022-08-17T12:00:59.386Z,99457.83
2022-08-17T12:02:22.538Z,99479.42
2022-08-17T12:03:34.262Z,99474.63
2022-08-17T12:04:37.259Z,99479.20
2022-08-17T12:05:40.171Z,99481.22
2022-08-17T12:06:52.550Z,99479.95
2022-08-17T12:08:07.718Z,99474.34
2022-08-17T12:09:13.772Z,99470.42
2022-08-17T12:10:20.593Z,99470.98
2022-08-17T12:11:57.775Z,99471.17
2022-08-17T12:12:31.639Z,99465.02
2022-08-17T12:13:52.528Z,99473.95
2022-08-17T12:15:12.533Z,99473.70
2022-08-17T12:16:01.540Z,99469.50
2022-08-17T12:17:07.356Z,99471.17
2022-08-17T12:18:21.422Z,99475.75
2022-08-17T12:19:23.729Z,99469.60
2022-08-17T12:20:40.269Z,99471.03
2022-08-17T12:22:01.489Z,99475.92
2022-08-17T12:23:07.587Z,99473.37
2022-08-17T12:24:22.026Z,99472.11
2022-08-17T12:25:31.070Z,99469.50
2022-08-17T12:26:36.444Z,99463.50
2022-08-17T12:28:58.534Z,99457.36
2022-08-17T12:30:12.279Z,99462.09
2022-08-17T12:31:20.681Z,99452.63
2022-08-17T12:32:26.637Z,99454.69
2022-08-17T12:33:29.214Z,99456.86
2022-08-17T12:34:38.230Z,99451.75
2022-08-17T12:35:41.080Z,99451.91
2022-08-17T12:36:46.895Z,99457.83
2022-08-17T12:37:49.727Z,99454.63
2022-08-17T12:38:58.663Z,99451.91
2022-08-17T12:40:08.862Z,99456.92
2022-08-17T12:41:13.364Z,99469.16
2022-08-17T12:42:27.780Z,99461.23
2022-08-17T12:43:30.101Z,99463.78
2022-08-17T12:45:49.325Z,99454.99
2022-08-17T12:47:01.363Z,99467.59
2022-08-17T12:49:24.096Z,99463.05
2022-08-17T12:50:28.638Z,99467.37
2022-08-17T12:51:31.398Z,99465.17
2022-08-17T12:52:37.381Z,99462.23
2022-08-17T12:53:43.197Z,99463.05
2022-08-17T12:54:51.982Z,99458.92
2022-08-17T12:55:55.422Z,99461.05
2022-08-17T12:57:01.675Z,99463.11
2022-08-17T12:58:05.975Z,99465.67
2022-08-17T12:59:10.147Z,99463.94
2022-08-17T13:00:20.554Z,99470.68
2022-08-17T13:01:23.495Z,99465.61
2022-08-17T13:02:32.207Z,99467.32
2022-08-17T13:03:49.616Z,99467.57
2022-08-17T13:04:52.150Z,99471.50
2022-08-17T13:05:57.895Z,99481.05
2022-08-17T13:07:00.491Z,99476.68
2022-08-17T13:08:15.280Z,99474.39
2022-08-17T13:09:21.283Z,99472.88
2022-08-17T13:10:33.088Z,99475.55
2022-08-17T13:11:35.100Z,99476.73
2022-08-17T13:12:38.892Z,99475.44
2022-08-17T13:14:57.114Z,99478.27
2022-08-17T13:16:05.564Z,99487.11
2022-08-17T13:17:13.157Z,99485.23
2022-08-17T13:18:37.814Z,99484.85
2022-08-17T13:19:43.861Z,99488.84
2022-08-17T13:20:51.800Z,99477.53
2022-08-17T13:22:00.460Z,99474.81
2022-08-17T13:23:11.391Z,99472.30
2022-08-17T13:24:13.724Z,99476.95
2022-08-17T13:25:16.340Z,99483.72
2022-08-17T13:26:22.666Z,99469.88
2022-08-17T13:27:28.146Z,99469.88
2022-08-17T13:28:36.381Z,99472.33
2022-08-17T13:29:41.855Z,99474.39
2022-08-17T13:30:44.527Z,99472.30
2022-08-17T13:31:52.889Z,99476.05
2022-08-17T13:32:51.828Z,99471.42
2022-08-17T13:34:14.650Z,99476.27
2022-08-17T13:35:39.870Z,99473.56
2022-08-17T13:36:42.957Z,99473.13
2022-08-17T13:37:59.858Z,99480.83
2022-08-17T13:39:15.292Z,99477.84
2022-08-17T13:40:22.347Z,99481.44
2022-08-17T13:41:34.427Z,99479.86
2022-08-17T13:42:53.563Z,99491.44
2022-08-17T13:43:48.231Z,99492.36
2022-08-17T13:44:50.683Z,99488.00
2022-08-17T13:45:53.332Z,99490.72
2022-08-17T13:46:57.222Z,99490.72
2022-08-17T13:48:14.007Z,99482.35
2022-08-17T13:49:19.791Z,99490.16
2022-08-17T13:50:22.603Z,99486.62
2022-08-17T13:51:28.511Z,99489.16
2022-08-17T13:52:40.947Z,99482.49
2022-08-17T13:53:46.903Z,99484.78
2022-08-17T13:54:51.188Z,99483.72
2022-08-17T13:56:01.627Z,99482.86
2022-08-17T13:57:18.587Z,99487.26
2022-08-17T13:58:26.834Z,99484.89
2022-08-17T13:59:53.463Z,99486.40
2022-08-17T14:00:37.594Z,99490.52
2022-08-17T14:01:53.348Z,99479.84
2022-08-17T14:02:56.008Z,99480.27
2022-08-17T14:04:00.791Z,99437.09
2022-08-17T14:05:06.310Z,99481.74
2022-08-17T14:06:08.863Z,99481.92
2022-08-17T14:07:14.614Z,99473.53
2022-08-17T14:08:20.175Z,99481.05